sensor_id;sensor_type;location;lat;lon;timestamp;temperature;humidity
14397;DHT22;50653;47.810;13.022;2023-11-18T00:00:07;5.70;99.90
14397;DHT22;50653;47.810;13.022;2023-11-18T00:02:38;5.60;99.90
14397;DHT22;50653;47.810;13.022;2023-11-18T00:05:04;5.70;99.90
14397;DHT22;50653;47.810;13.022;2023-11-18T00:07:32;5.70;99.90
14397;DHT22;50653;47.810;13.022;2023-11-18T00:09:58;5.70;99.90
14397;DHT22;50653;47.810;13.022;2023-11-18T00:12:24;5.70;99.90
14397;DHT22;50653;47.810;13.022;2023-11-18T00:14:50;5.60;99.90
14397;DHT22;50653;47.810;13.022;2023-11-18T00:17:15;5.60;99.90
14397;DHT22;50653;47.810;13.022;2023-11-18T00:19:41;5.50;99.90
14397;DHT22;50653;47.810;13.022;2023-11-18T00:22:08;5.40;99.90
14397;DHT22;50653;47.810;13.022;2023-11-18T00:24:34;5.50;99.90
14397;DHT22;50653;47.810;13.022;2023-11-18T00:27:01;5.50;99.90
14397;DHT22;50653;47.810;13.022;2023-11-18T00:29:34;5.50;99.90
14397;DHT22;50653;47.810;13.022;2023-11-18T00:32:01;5.50;99.90
14397;DHT22;50653;47.810;13.022;2023-11-18T00:34:27;5.50;99.90
14397;DHT22;50653;47.810;13.022;2023-11-18T00:36:55;5.50;99.90
14397;DHT22;50653;47.810;13.022;2023-11-18T00:39:23;5.50;99.90
14397;DHT22;50653;47.810;13.022;2023-11-18T00:41:49;5.50;99.90
14397;DHT22;50653;47.810;13.022;2023-11-18T00:44:14;5.50;99.90
14397;DHT22;50653;47.810;13.022;2023-11-18T00:46:40;5.40;99.90
14397;DHT22;50653;47.810;13.022;2023-11-18T00:49:06;5.40;99.90
14397;DHT22;50653;47.810;13.022;2023-11-18T00:51:33;5.50;99.90
14397;DHT22;50653;47.810;13.022;2023-11-18T00:53:59;5.50;99.90
14397;DHT22;50653;47.810;13.022;2023-11-18T00:56:27;5.60;99.90
14397;DHT22;50653;47.810;13.022;2023-11-18T00:58:54;5.70;99.90
14397;DHT22;50653;47.810;13.022;2023-11-18T01:01:20;5.60;99.90
14397;DHT22;50653;47.810;13.022;2023-11-18T01:03:47;5.60;99.90
14397;DHT22;50653;47.810;13.022;2023-11-18T01:06:13;5.70;99.90
14397;DHT22;50653;47.810;13.022;2023-11-18T01:08:44;5.70;99.90
14397;DHT22;50653;47.810;13.022;2023-11-18T01:11:10;5.60;99.90
14397;DHT22;50653;47.810;13.022;2023-11-18T01:13:36;5.70;99.90
14397;DHT22;50653;47.810;13.022;2023-11-18T01:16:01;5.70;99.90
14397;DHT22;50653;47.810;13.022;2023-11-18T01:18:27;5.70;99.90
14397;DHT22;50653;47.810;13.022;2023-11-18T01:20:53;5.70;99.90
14397;DHT22;50653;47.810;13.022;2023-11-18T01:23:19;5.70;99.90
14397;DHT22;50653;47.810;13.022;2023-11-18T01:25:45;5.80;99.90
14397;DHT22;50653;47.810;13.022;2023-11-18T01:28:11;5.80;99.90
14397;DHT22;50653;47.810;13.022;2023-11-18T01:30:37;5.80;99.90
14397;DHT22;50653;47.810;13.022;2023-11-18T01:33:03;5.80;99.90
14397;DHT22;50653;47.810;13.022;2023-11-18T01:35:29;5.80;99.90
14397;DHT22;50653;47.810;13.022;2023-11-18T01:37:56;5.80;99.90
14397;DHT22;50653;47.810;13.022;2023-11-18T01:40:26;5.90;99.90
14397;DHT22;50653;47.810;13.022;2023-11-18T01:42:51;5.80;99.90
14397;DHT22;50653;47.810;13.022;2023-11-18T01:45:17;5.90;99.90
14397;DHT22;50653;47.810;13.022;2023-11-18T01:47:44;5.90;99.90
14397;DHT22;50653;47.810;13.022;2023-11-18T01:50:12;5.90;99.90
14397;DHT22;50653;47.810;13.022;2023-11-18T01:52:40;5.90;99.90
14397;DHT22;50653;47.810;13.022;2023-11-18T01:55:06;5.90;99.90
14397;DHT22;50653;47.810;13.022;2023-11-18T01:57:36;5.90;99.90
14397;DHT22;50653;47.810;13.022;2023-11-18T02:00:03;5.90;99.90
14397;DHT22;50653;47.810;13.022;2023-11-18T02:02:39;5.90;99.90
14397;DHT22;50653;47.810;13.022;2023-11-18T02:05:05;5.90;99.90
14397;DHT22;50653;47.810;13.022;2023-11-18T02:07:33;5.90;99.90
14397;DHT22;50653;47.810;13.022;2023-11-18T02:10:02;5.90;99.90
14397;DHT22;50653;47.810;13.022;2023-11-18T02:12:42;5.90;99.90
14397;DHT22;50653;47.810;13.022;2023-11-18T02:15:10;5.90;99.90
14397;DHT22;50653;47.810;13.022;2023-11-18T02:17:38;5.90;99.90
14397;DHT22;50653;47.810;13.022;2023-11-18T02:20:06;5.90;99.90
14397;DHT22;50653;47.810;13.022;2023-11-18T02:22:45;5.90;99.90
14397;DHT22;50653;47.810;13.022;2023-11-18T02:25:17;6.00;99.90
14397;DHT22;50653;47.810;13.022;2023-11-18T02:27:44;6.00;99.90
14397;DHT22;50653;47.810;13.022;2023-11-18T02:30:12;6.00;99.90
14397;DHT22;50653;47.810;13.022;2023-11-18T02:33:00;5.90;99.90
14397;DHT22;50653;47.810;13.022;2023-11-18T02:35:36;5.90;99.90
14397;DHT22;50653;47.810;13.022;2023-11-18T02:38:04;5.90;99.90
14397;DHT22;50653;47.810;13.022;2023-11-18T02:40:39;5.90;99.90
14397;DHT22;50653;47.810;13.022;2023-11-18T02:43:06;5.90;99.90
14397;DHT22;50653;47.810;13.022;2023-11-18T02:45:34;5.90;99.90
14397;DHT22;50653;47.810;13.022;2023-11-18T02:48:01;6.00;99.90
14397;DHT22;50653;47.810;13.022;2023-11-18T02:50:27;6.00;99.90
14397;DHT22;50653;47.810;13.022;2023-11-18T02:52:53;6.00;99.90
14397;DHT22;50653;47.810;13.022;2023-11-18T02:55:19;6.00;99.90
14397;DHT22;50653;47.810;13.022;2023-11-18T02:57:47;6.00;99.90
14397;DHT22;50653;47.810;13.022;2023-11-18T03:00:13;6.00;99.90
14397;DHT22;50653;47.810;13.022;2023-11-18T03:02:51;6.00;99.90
14397;DHT22;50653;47.810;13.022;2023-11-18T03:05:20;6.00;99.90
14397;DHT22;50653;47.810;13.022;2023-11-18T03:07:49;6.00;99.90
14397;DHT22;50653;47.810;13.022;2023-11-18T03:10:20;6.10;99.90
14397;DHT22;50653;47.810;13.022;2023-11-18T03:12:52;6.00;99.90
14397;DHT22;50653;47.810;13.022;2023-11-18T03:15:19;6.10;99.90
14397;DHT22;50653;47.810;13.022;2023-11-18T03:17:48;6.10;99.90
14397;DHT22;50653;47.810;13.022;2023-11-18T03:20:24;6.10;99.90
14397;DHT22;50653;47.810;13.022;2023-11-18T03:22:51;6.10;99.90
14397;DHT22;50653;47.810;13.022;2023-11-18T03:25:18;6.10;99.90
14397;DHT22;50653;47.810;13.022;2023-11-18T03:27:45;6.10;99.90
14397;DHT22;50653;47.810;13.022;2023-11-18T03:30:11;6.10;99.90
14397;DHT22;50653;47.810;13.022;2023-11-18T03:32:38;6.00;99.90
14397;DHT22;50653;47.810;13.022;2023-11-18T03:35:05;6.10;99.90
14397;DHT22;50653;47.810;13.022;2023-11-18T03:37:38;6.10;99.90
14397;DHT22;50653;47.810;13.022;2023-11-18T03:40:07;6.00;99.90
14397;DHT22;50653;47.810;13.022;2023-11-18T03:42:32;6.10;99.90
14397;DHT22;50653;47.810;13.022;2023-11-18T03:44:58;6.10;99.90
14397;DHT22;50653;47.810;13.022;2023-11-18T03:47:24;6.10;99.90
14397;DHT22;50653;47.810;13.022;2023-11-18T03:49:50;6.10;99.90
14397;DHT22;50653;47.810;13.022;2023-11-18T03:52:16;6.00;99.90
14397;DHT22;50653;47.810;13.022;2023-11-18T03:54:42;6.00;99.90
14397;DHT22;50653;47.810;13.022;2023-11-18T03:57:07;6.00;99.90
14397;DHT22;50653;47.810;13.022;2023-11-18T03:59:34;6.00;99.90
14397;DHT22;50653;47.810;13.022;2023-11-18T04:01:59;6.00;99.90
14397;DHT22;50653;47.810;13.022;2023-11-18T04:04:25;6.00;99.90
14397;DHT22;50653;47.810;13.022;2023-11-18T04:06:50;6.00;99.90
14397;DHT22;50653;47.810;13.022;2023-11-18T04:09:16;6.00;99.90
14397;DHT22;50653;47.810;13.022;2023-11-18T04:11:42;5.90;99.90
14397;DHT22;50653;47.810;13.022;2023-11-18T04:14:10;6.00;99.90
14397;DHT22;50653;47.810;13.022;2023-11-18T04:16:36;6.00;99.90
14397;DHT22;50653;47.810;13.022;2023-11-18T04:19:04;6.00;99.90
14397;DHT22;50653;47.810;13.022;2023-11-18T04:21:30;6.00;99.90
14397;DHT22;50653;47.810;13.022;2023-11-18T04:23:56;6.00;99.90
14397;DHT22;50653;47.810;13.022;2023-11-18T04:26:22;6.00;99.90
14397;DHT22;50653;47.810;13.022;2023-11-18T04:28:47;6.00;99.90
14397;DHT22;50653;47.810;13.022;2023-11-18T04:31:13;6.00;99.90
14397;DHT22;50653;47.810;13.022;2023-11-18T04:33:39;6.00;99.90
14397;DHT22;50653;47.810;13.022;2023-11-18T04:36:07;6.00;99.90
14397;DHT22;50653;47.810;13.022;2023-11-18T04:38:36;6.00;99.90
14397;DHT22;50653;47.810;13.022;2023-11-18T04:41:05;6.00;99.90
14397;DHT22;50653;47.810;13.022;2023-11-18T04:43:32;5.90;99.90
14397;DHT22;50653;47.810;13.022;2023-11-18T04:45:59;5.90;99.90
14397;DHT22;50653;47.810;13.022;2023-11-18T04:48:24;5.90;99.90
14397;DHT22;50653;47.810;13.022;2023-11-18T04:50:50;5.90;99.90
14397;DHT22;50653;47.810;13.022;2023-11-18T04:53:16;5.90;99.90
14397;DHT22;50653;47.810;13.022;2023-11-18T04:55:42;5.90;99.90
14397;DHT22;50653;47.810;13.022;2023-11-18T04:58:07;5.90;99.90
14397;DHT22;50653;47.810;13.022;2023-11-18T05:00:37;5.90;99.90
14397;DHT22;50653;47.810;13.022;2023-11-18T05:03:07;5.90;99.90
14397;DHT22;50653;47.810;13.022;2023-11-18T05:05:38;5.90;99.90
14397;DHT22;50653;47.810;13.022;2023-11-18T05:08:05;5.90;99.90
14397;DHT22;50653;47.810;13.022;2023-11-18T05:10:35;5.90;99.90
14397;DHT22;50653;47.810;13.022;2023-11-18T05:13:02;5.90;99.90
14397;DHT22;50653;47.810;13.022;2023-11-18T05:15:28;5.90;99.90
14397;DHT22;50653;47.810;13.022;2023-11-18T05:17:55;5.90;99.90
14397;DHT22;50653;47.810;13.022;2023-11-18T05:20:21;5.90;99.90
14397;DHT22;50653;47.810;13.022;2023-11-18T05:22:47;5.90;99.90
14397;DHT22;50653;47.810;13.022;2023-11-18T05:25:13;5.90;99.90
14397;DHT22;50653;47.810;13.022;2023-11-18T05:27:39;5.90;99.90
14397;DHT22;50653;47.810;13.022;2023-11-18T05:30:10;5.90;99.90
14397;DHT22;50653;47.810;13.022;2023-11-18T05:32:36;5.90;99.90
14397;DHT22;50653;47.810;13.022;2023-11-18T05:35:03;5.90;99.90
14397;DHT22;50653;47.810;13.022;2023-11-18T05:37:31;5.90;99.90
14397;DHT22;50653;47.810;13.022;2023-11-18T05:40:02;5.90;99.90
14397;DHT22;50653;47.810;13.022;2023-11-18T05:42:35;5.90;99.90
14397;DHT22;50653;47.810;13.022;2023-11-18T05:45:07;5.90;99.90
14397;DHT22;50653;47.810;13.022;2023-11-18T05:47:33;5.90;99.90
14397;DHT22;50653;47.810;13.022;2023-11-18T05:50:02;5.90;99.90
14397;DHT22;50653;47.810;13.022;2023-11-18T05:52:30;5.90;99.90
14397;DHT22;50653;47.810;13.022;2023-11-18T05:54:56;5.90;99.90
14397;DHT22;50653;47.810;13.022;2023-11-18T05:57:22;5.80;99.90
14397;DHT22;50653;47.810;13.022;2023-11-18T05:59:47;5.80;99.90
14397;DHT22;50653;47.810;13.022;2023-11-18T06:02:13;5.90;99.90
14397;DHT22;50653;47.810;13.022;2023-11-18T06:04:46;5.90;99.90
14397;DHT22;50653;47.810;13.022;2023-11-18T06:07:12;5.90;99.90
14397;DHT22;50653;47.810;13.022;2023-11-18T06:09:43;5.90;99.90
14397;DHT22;50653;47.810;13.022;2023-11-18T06:12:09;5.90;99.90
14397;DHT22;50653;47.810;13.022;2023-11-18T06:14:38;5.90;99.90
14397;DHT22;50653;47.810;13.022;2023-11-18T06:17:04;5.90;99.90
14397;DHT22;50653;47.810;13.022;2023-11-18T06:19:32;5.90;99.90
14397;DHT22;50653;47.810;13.022;2023-11-18T06:21:58;5.90;99.90
14397;DHT22;50653;47.810;13.022;2023-11-18T06:24:24;5.80;99.90
14397;DHT22;50653;47.810;13.022;2023-11-18T06:26:49;5.90;99.90
14397;DHT22;50653;47.810;13.022;2023-11-18T06:29:15;5.90;99.90
14397;DHT22;50653;47.810;13.022;2023-11-18T06:31:41;5.90;99.90
14397;DHT22;50653;47.810;13.022;2023-11-18T06:34:08;5.90;99.90
14397;DHT22;50653;47.810;13.022;2023-11-18T06:36:34;5.90;99.90
14397;DHT22;50653;47.810;13.022;2023-11-18T06:39:00;5.90;99.90
14397;DHT22;50653;47.810;13.022;2023-11-18T06:41:26;5.90;99.90
14397;DHT22;50653;47.810;13.022;2023-11-18T06:43:59;5.90;99.90
14397;DHT22;50653;47.810;13.022;2023-11-18T06:46:30;5.90;99.90
14397;DHT22;50653;47.810;13.022;2023-11-18T06:49:00;5.90;99.90
14397;DHT22;50653;47.810;13.022;2023-11-18T06:51:33;6.00;99.90
14397;DHT22;50653;47.810;13.022;2023-11-18T06:54:01;5.90;99.90
14397;DHT22;50653;47.810;13.022;2023-11-18T06:56:34;6.00;99.90
14397;DHT22;50653;47.810;13.022;2023-11-18T06:59:01;5.90;99.90
14397;DHT22;50653;47.810;13.022;2023-11-18T07:01:28;5.90;99.90
14397;DHT22;50653;47.810;13.022;2023-11-18T07:03:56;5.90;99.90
14397;DHT22;50653;47.810;13.022;2023-11-18T07:06:22;5.90;99.90
14397;DHT22;50653;47.810;13.022;2023-11-18T07:08:51;5.90;99.90
14397;DHT22;50653;47.810;13.022;2023-11-18T07:11:18;5.90;99.90
14397;DHT22;50653;47.810;13.022;2023-11-18T07:13:44;5.90;99.90
14397;DHT22;50653;47.810;13.022;2023-11-18T07:16:10;5.90;99.90
14397;DHT22;50653;47.810;13.022;2023-11-18T07:18:37;5.90;99.90
14397;DHT22;50653;47.810;13.022;2023-11-18T07:21:04;5.90;99.90
14397;DHT22;50653;47.810;13.022;2023-11-18T07:23:31;5.90;99.90
14397;DHT22;50653;47.810;13.022;2023-11-18T07:25:57;5.90;99.90
14397;DHT22;50653;47.810;13.022;2023-11-18T07:28:23;5.90;99.90
14397;DHT22;50653;47.810;13.022;2023-11-18T07:30:49;5.90;99.90
14397;DHT22;50653;47.810;13.022;2023-11-18T07:33:15;5.90;99.90
14397;DHT22;50653;47.810;13.022;2023-11-18T07:35:45;5.90;99.90
14397;DHT22;50653;47.810;13.022;2023-11-18T07:38:12;6.00;99.90
14397;DHT22;50653;47.810;13.022;2023-11-18T07:40:38;6.00;99.90
14397;DHT22;50653;47.810;13.022;2023-11-18T07:43:10;6.00;99.90
14397;DHT22;50653;47.810;13.022;2023-11-18T07:45:37;6.00;99.90
14397;DHT22;50653;47.810;13.022;2023-11-18T07:48:07;6.10;99.90
14397;DHT22;50653;47.810;13.022;2023-11-18T07:50:36;6.10;99.90
14397;DHT22;50653;47.810;13.022;2023-11-18T07:53:02;6.10;99.90
14397;DHT22;50653;47.810;13.022;2023-11-18T07:55:31;6.10;99.90
14397;DHT22;50653;47.810;13.022;2023-11-18T07:58:03;6.10;99.90
14397;DHT22;50653;47.810;13.022;2023-11-18T08:00:29;6.20;99.90
14397;DHT22;50653;47.810;13.022;2023-11-18T08:02:59;6.10;99.90
14397;DHT22;50653;47.810;13.022;2023-11-18T08:05:26;6.20;99.90
14397;DHT22;50653;47.810;13.022;2023-11-18T08:07:53;6.20;99.90
14397;DHT22;50653;47.810;13.022;2023-11-18T08:10:19;6.20;99.90
14397;DHT22;50653;47.810;13.022;2023-11-18T08:12:45;6.20;99.90
14397;DHT22;50653;47.810;13.022;2023-11-18T08:15:12;6.30;99.90
14397;DHT22;50653;47.810;13.022;2023-11-18T08:17:39;6.30;99.90
14397;DHT22;50653;47.810;13.022;2023-11-18T08:20:05;6.30;99.90
14397;DHT22;50653;47.810;13.022;2023-11-18T08:22:43;6.30;99.90
14397;DHT22;50653;47.810;13.022;2023-11-18T08:25:12;6.30;99.90
14397;DHT22;50653;47.810;13.022;2023-11-18T08:27:41;6.40;99.90
14397;DHT22;50653;47.810;13.022;2023-11-18T08:30:07;6.40;99.90
14397;DHT22;50653;47.810;13.022;2023-11-18T08:32:40;6.40;99.90
14397;DHT22;50653;47.810;13.022;2023-11-18T08:35:09;6.40;99.90
14397;DHT22;50653;47.810;13.022;2023-11-18T08:37:38;6.40;99.90
14397;DHT22;50653;47.810;13.022;2023-11-18T08:40:05;6.40;99.90
14397;DHT22;50653;47.810;13.022;2023-11-18T08:42:45;6.50;99.90
14397;DHT22;50653;47.810;13.022;2023-11-18T08:45:23;6.50;99.90
14397;DHT22;50653;47.810;13.022;2023-11-18T08:47:53;6.50;99.90
14397;DHT22;50653;47.810;13.022;2023-11-18T08:50:19;6.40;99.90
14397;DHT22;50653;47.810;13.022;2023-11-18T08:52:47;6.50;99.90
14397;DHT22;50653;47.810;13.022;2023-11-18T08:55:14;6.50;99.90
14397;DHT22;50653;47.810;13.022;2023-11-18T08:57:49;6.50;99.90
14397;DHT22;50653;47.810;13.022;2023-11-18T09:00:27;6.60;99.90
14397;DHT22;50653;47.810;13.022;2023-11-18T09:03:15;6.60;99.90
14397;DHT22;50653;47.810;13.022;2023-11-18T09:05:58;6.60;99.90
14397;DHT22;50653;47.810;13.022;2023-11-18T09:08:34;6.70;99.90
14397;DHT22;50653;47.810;13.022;2023-11-18T09:11:02;6.60;99.90
14397;DHT22;50653;47.810;13.022;2023-11-18T09:13:29;6.60;99.90
14397;DHT22;50653;47.810;13.022;2023-11-18T09:15:59;6.50;99.90
14397;DHT22;50653;47.810;13.022;2023-11-18T09:18:31;6.50;99.90
14397;DHT22;50653;47.810;13.022;2023-11-18T09:20:58;6.50;99.90
14397;DHT22;50653;47.810;13.022;2023-11-18T09:23:26;6.60;99.90
14397;DHT22;50653;47.810;13.022;2023-11-18T09:25:53;6.60;99.90
14397;DHT22;50653;47.810;13.022;2023-11-18T09:28:20;6.60;99.90
14397;DHT22;50653;47.810;13.022;2023-11-18T09:30:46;6.60;99.90
14397;DHT22;50653;47.810;13.022;2023-11-18T09:33:18;6.60;99.90
14397;DHT22;50653;47.810;13.022;2023-11-18T09:35:57;6.60;99.90
14397;DHT22;50653;47.810;13.022;2023-11-18T09:38:32;6.60;99.90
14397;DHT22;50653;47.810;13.022;2023-11-18T09:41:02;6.60;99.90
14397;DHT22;50653;47.810;13.022;2023-11-18T09:43:31;6.70;99.90
14397;DHT22;50653;47.810;13.022;2023-11-18T09:46:26;6.70;99.90
14397;DHT22;50653;47.810;13.022;2023-11-18T09:48:53;6.70;99.90
14397;DHT22;50653;47.810;13.022;2023-11-18T09:51:31;6.70;99.90
14397;DHT22;50653;47.810;13.022;2023-11-18T09:54:01;6.70;99.90
14397;DHT22;50653;47.810;13.022;2023-11-18T09:59:23;6.60;99.90
14397;DHT22;50653;47.810;13.022;2023-11-18T10:01:51;6.70;99.90
14397;DHT22;50653;47.810;13.022;2023-11-18T10:04:20;6.70;99.90
14397;DHT22;50653;47.810;13.022;2023-11-18T10:06:46;6.70;99.90
14397;DHT22;50653;47.810;13.022;2023-11-18T10:09:13;6.70;99.90
14397;DHT22;50653;47.810;13.022;2023-11-18T10:11:44;6.70;99.90
14397;DHT22;50653;47.810;13.022;2023-11-18T10:14:13;6.70;99.90
14397;DHT22;50653;47.810;13.022;2023-11-18T10:16:41;6.70;99.90
14397;DHT22;50653;47.810;13.022;2023-11-18T10:19:11;6.70;99.90
14397;DHT22;50653;47.810;13.022;2023-11-18T10:21:38;6.80;99.90
14397;DHT22;50653;47.810;13.022;2023-11-18T10:24:07;6.80;99.90
14397;DHT22;50653;47.810;13.022;2023-11-18T10:26:42;6.80;99.90
14397;DHT22;50653;47.810;13.022;2023-11-18T10:29:09;6.80;99.90
14397;DHT22;50653;47.810;13.022;2023-11-18T10:31:35;6.80;99.90
14397;DHT22;50653;47.810;13.022;2023-11-18T10:34:03;6.80;99.90
14397;DHT22;50653;47.810;13.022;2023-11-18T10:36:29;6.90;99.90
14397;DHT22;50653;47.810;13.022;2023-11-18T10:38:58;6.90;99.90
14397;DHT22;50653;47.810;13.022;2023-11-18T10:41:27;7.00;99.90
14397;DHT22;50653;47.810;13.022;2023-11-18T10:44:06;7.00;99.90
14397;DHT22;50653;47.810;13.022;2023-11-18T10:46:33;7.00;99.90
14397;DHT22;50653;47.810;13.022;2023-11-18T10:48:58;7.00;99.90
14397;DHT22;50653;47.810;13.022;2023-11-18T10:51:24;7.00;99.90
14397;DHT22;50653;47.810;13.022;2023-11-18T10:53:53;7.10;99.90
14397;DHT22;50653;47.810;13.022;2023-11-18T10:56:22;7.10;99.90
14397;DHT22;50653;47.810;13.022;2023-11-18T10:59:05;7.10;99.90
14397;DHT22;50653;47.810;13.022;2023-11-18T11:01:35;7.10;99.90
14397;DHT22;50653;47.810;13.022;2023-11-18T11:04:11;7.20;99.90
14397;DHT22;50653;47.810;13.022;2023-11-18T11:06:44;7.20;99.90
14397;DHT22;50653;47.810;13.022;2023-11-18T11:09:23;7.20;99.90
14397;DHT22;50653;47.810;13.022;2023-11-18T11:11:54;7.20;99.90
14397;DHT22;50653;47.810;13.022;2023-11-18T11:14:22;7.30;99.90
14397;DHT22;50653;47.810;13.022;2023-11-18T11:16:54;7.30;99.90
14397;DHT22;50653;47.810;13.022;2023-11-18T11:19:25;7.30;99.90
14397;DHT22;50653;47.810;13.022;2023-11-18T11:22:05;7.40;99.90
14397;DHT22;50653;47.810;13.022;2023-11-18T11:27:41;7.40;99.90
14397;DHT22;50653;47.810;13.022;2023-11-18T11:30:22;7.40;99.90
14397;DHT22;50653;47.810;13.022;2023-11-18T11:32:51;7.50;99.90
14397;DHT22;50653;47.810;13.022;2023-11-18T11:35:31;7.50;99.90
14397;DHT22;50653;47.810;13.022;2023-11-18T11:37:59;7.50;99.90
14397;DHT22;50653;47.810;13.022;2023-11-18T11:40:39;7.50;99.90
14397;DHT22;50653;47.810;13.022;2023-11-18T11:43:09;7.50;99.90
14397;DHT22;50653;47.810;13.022;2023-11-18T11:45:48;7.60;99.90
14397;DHT22;50653;47.810;13.022;2023-11-18T11:48:14;7.50;99.90
14397;DHT22;50653;47.810;13.022;2023-11-18T11:53:19;7.60;99.90
14397;DHT22;50653;47.810;13.022;2023-11-18T11:55:53;7.60;99.90
14397;DHT22;50653;47.810;13.022;2023-11-18T11:58:37;7.60;99.90
14397;DHT22;50653;47.810;13.022;2023-11-18T12:01:27;7.70;99.90
14397;DHT22;50653;47.810;13.022;2023-11-18T12:04:03;7.70;99.90
14397;DHT22;50653;47.810;13.022;2023-11-18T12:06:41;7.80;99.90
14397;DHT22;50653;47.810;13.022;2023-11-18T12:09:08;7.80;99.90
14397;DHT22;50653;47.810;13.022;2023-11-18T12:11:37;7.80;99.90
14397;DHT22;50653;47.810;13.022;2023-11-18T12:14:11;7.90;99.90
14397;DHT22;50653;47.810;13.022;2023-11-18T12:17:07;7.80;99.90
14397;DHT22;50653;47.810;13.022;2023-11-18T12:19:36;7.90;99.90
14397;DHT22;50653;47.810;13.022;2023-11-18T12:22:11;7.80;99.90
14397;DHT22;50653;47.810;13.022;2023-11-18T12:24:44;7.80;99.90
14397;DHT22;50653;47.810;13.022;2023-11-18T12:27:12;7.90;99.90
14397;DHT22;50653;47.810;13.022;2023-11-18T12:29:42;7.90;99.90
14397;DHT22;50653;47.810;13.022;2023-11-18T12:32:11;7.90;99.90
14397;DHT22;50653;47.810;13.022;2023-11-18T12:35:00;7.90;99.90
14397;DHT22;50653;47.810;13.022;2023-11-18T12:40:53;7.90;99.90
14397;DHT22;50653;47.810;13.022;2023-11-18T12:43:47;7.80;99.90
14397;DHT22;50653;47.810;13.022;2023-11-18T12:46:49;7.80;99.90
14397;DHT22;50653;47.810;13.022;2023-11-18T12:49:16;7.80;99.90
14397;DHT22;50653;47.810;13.022;2023-11-18T12:51:42;7.70;99.90
14397;DHT22;50653;47.810;13.022;2023-11-18T12:54:10;7.70;99.90
14397;DHT22;50653;47.810;13.022;2023-11-18T12:56:38;7.70;99.90
14397;DHT22;50653;47.810;13.022;2023-11-18T12:59:04;7.70;99.90
14397;DHT22;50653;47.810;13.022;2023-11-18T13:01:34;7.70;99.90
14397;DHT22;50653;47.810;13.022;2023-11-18T13:04:04;7.70;99.90
14397;DHT22;50653;47.810;13.022;2023-11-18T13:06:30;7.70;99.90
14397;DHT22;50653;47.810;13.022;2023-11-18T13:08:56;7.70;99.90
14397;DHT22;50653;47.810;13.022;2023-11-18T13:11:23;7.70;99.90
14397;DHT22;50653;47.810;13.022;2023-11-18T13:13:51;7.70;99.90
14397;DHT22;50653;47.810;13.022;2023-11-18T13:16:17;7.70;99.90
14397;DHT22;50653;47.810;13.022;2023-11-18T13:18:44;7.70;99.90
14397;DHT22;50653;47.810;13.022;2023-11-18T13:21:18;7.70;99.90
14397;DHT22;50653;47.810;13.022;2023-11-18T13:23:48;7.80;99.90
14397;DHT22;50653;47.810;13.022;2023-11-18T13:26:15;7.80;99.90
14397;DHT22;50653;47.810;13.022;2023-11-18T13:28:40;7.80;99.90
14397;DHT22;50653;47.810;13.022;2023-11-18T13:31:06;7.80;99.90
14397;DHT22;50653;47.810;13.022;2023-11-18T13:33:46;7.70;99.90
14397;DHT22;50653;47.810;13.022;2023-11-18T13:36:13;7.80;99.90
14397;DHT22;50653;47.810;13.022;2023-11-18T13:38:41;7.70;99.90
14397;DHT22;50653;47.810;13.022;2023-11-18T13:41:12;7.70;99.90
14397;DHT22;50653;47.810;13.022;2023-11-18T13:43:45;7.70;99.90
14397;DHT22;50653;47.810;13.022;2023-11-18T13:46:12;7.80;99.90
14397;DHT22;50653;47.810;13.022;2023-11-18T13:48:39;7.70;99.90
14397;DHT22;50653;47.810;13.022;2023-11-18T13:51:12;7.80;99.90
14397;DHT22;50653;47.810;13.022;2023-11-18T13:53:39;7.90;99.90
14397;DHT22;50653;47.810;13.022;2023-11-18T13:56:07;7.90;99.90
14397;DHT22;50653;47.810;13.022;2023-11-18T13:58:38;8.00;99.90
14397;DHT22;50653;47.810;13.022;2023-11-18T14:01:07;8.00;99.90
14397;DHT22;50653;47.810;13.022;2023-11-18T14:03:35;8.10;99.90
14397;DHT22;50653;47.810;13.022;2023-11-18T14:06:08;8.10;99.90
14397;DHT22;50653;47.810;13.022;2023-11-18T14:08:37;8.20;99.90
14397;DHT22;50653;47.810;13.022;2023-11-18T14:11:03;8.30;99.90
14397;DHT22;50653;47.810;13.022;2023-11-18T14:13:31;8.30;99.90
14397;DHT22;50653;47.810;13.022;2023-11-18T14:15:58;8.30;99.90
14397;DHT22;50653;47.810;13.022;2023-11-18T14:18:25;8.30;99.90
14397;DHT22;50653;47.810;13.022;2023-11-18T14:20:52;8.30;99.90
14397;DHT22;50653;47.810;13.022;2023-11-18T14:23:17;8.20;99.90
14397;DHT22;50653;47.810;13.022;2023-11-18T14:25:44;8.20;99.90
14397;DHT22;50653;47.810;13.022;2023-11-18T14:28:11;8.20;99.90
14397;DHT22;50653;47.810;13.022;2023-11-18T14:30:37;8.30;99.90
14397;DHT22;50653;47.810;13.022;2023-11-18T14:33:03;8.30;99.90
14397;DHT22;50653;47.810;13.022;2023-11-18T14:35:29;8.30;99.90
14397;DHT22;50653;47.810;13.022;2023-11-18T14:37:55;8.40;99.90
14397;DHT22;50653;47.810;13.022;2023-11-18T14:40:21;8.40;99.90
14397;DHT22;50653;47.810;13.022;2023-11-18T14:42:49;8.40;99.90
14397;DHT22;50653;47.810;13.022;2023-11-18T14:45:16;8.40;99.90
14397;DHT22;50653;47.810;13.022;2023-11-18T14:47:43;8.30;99.90
14397;DHT22;50653;47.810;13.022;2023-11-18T14:50:22;8.20;99.90
14397;DHT22;50653;47.810;13.022;2023-11-18T14:52:52;8.20;99.90
14397;DHT22;50653;47.810;13.022;2023-11-18T14:55:24;8.20;99.90
14397;DHT22;50653;47.810;13.022;2023-11-18T14:57:51;8.20;99.90
14397;DHT22;50653;47.810;13.022;2023-11-18T15:00:17;8.20;99.90
14397;DHT22;50653;47.810;13.022;2023-11-18T15:02:51;8.10;99.90
14397;DHT22;50653;47.810;13.022;2023-11-18T15:05:19;8.00;99.90
14397;DHT22;50653;47.810;13.022;2023-11-18T15:07:52;8.00;99.90
14397;DHT22;50653;47.810;13.022;2023-11-18T15:10:20;7.90;99.90
14397;DHT22;50653;47.810;13.022;2023-11-18T15:12:50;7.90;99.90
14397;DHT22;50653;47.810;13.022;2023-11-18T15:15:27;7.80;99.90
14397;DHT22;50653;47.810;13.022;2023-11-18T15:18:01;7.80;99.90
14397;DHT22;50653;47.810;13.022;2023-11-18T15:20:34;7.70;99.90
14397;DHT22;50653;47.810;13.022;2023-11-18T15:23:00;7.60;99.90
14397;DHT22;50653;47.810;13.022;2023-11-18T15:25:26;7.40;99.90
14397;DHT22;50653;47.810;13.022;2023-11-18T15:27:52;7.40;99.90
14397;DHT22;50653;47.810;13.022;2023-11-18T15:30:18;7.40;99.90
14397;DHT22;50653;47.810;13.022;2023-11-18T15:32:45;7.30;99.90
14397;DHT22;50653;47.810;13.022;2023-11-18T15:35:11;7.20;99.90
14397;DHT22;50653;47.810;13.022;2023-11-18T15:37:39;7.10;99.90
14397;DHT22;50653;47.810;13.022;2023-11-18T15:40:10;7.20;99.90
14397;DHT22;50653;47.810;13.022;2023-11-18T15:42:40;7.20;99.90
14397;DHT22;50653;47.810;13.022;2023-11-18T15:45:13;7.00;99.90
14397;DHT22;50653;47.810;13.022;2023-11-18T15:47:40;6.90;99.90
14397;DHT22;50653;47.810;13.022;2023-11-18T15:50:09;6.80;99.90
14397;DHT22;50653;47.810;13.022;2023-11-18T15:52:38;6.70;99.90